Terminal Aerodrome Forecast
Issued by NWS

Home | Current Version | Previous Version | Text Only | Print | Product List | Glossary On
Versions: 1 2 3 4 5 6 7 8 9 10 11 12 13 14 15 16 17 18 19
000
FTUS45 KCYS 261125
TAFRWL
TAF
KRWL 261125Z 2612/2712 24007KT P6SM SCT015 BKN080
     FM261500 25017G25KT P6SM SCT050 BKN100
     FM261800 25018G28KT P6SM VCSH BKN050 OVC080
     FM270100 23010KT P6SM BKN080=

USA.gov is the U.S. government's official web portal to all federal, state and local government web resources and services.